Time;durP1;ratioP1;P1;durP2;ratioP2;P2;SDS_P1;SDS_P2;PMS_P1;PMS_P2;Temp;Humidity;BMP_temperature;BMP_pressure;BME280_temperature;BME280_humidity;BME280_pressure;Samples;Min_cycle;Max_cycle;Signal;HPM_P1;HPM_P2
2023/01/13 00:05:20;;;;;;;7.60;4.90;;;;;;;5.15;94.67;98997.77;433214;1253;142046;-62
2023/01/13 00:15:26;;;;;;;7.40;4.70;;;;;;;5.14;95.22;98990.70;434234;1253;141970;-63
2023/01/13 00:25:32;;;;;;;8.50;4.70;;;;;;;5.13;95.62;98988.33;436051;1252;142812;-63
2023/01/13 00:35:38;;;;;;;10.00;5.10;;;;;;;5.09;95.73;98974.10;433665;1256;142472;-62
2023/01/13 00:45:44;;;;;;;5.80;4.70;;;;;;;5.09;96.02;98973.77;434374;1252;142627;-63
2023/01/13 00:55:58;;;;;;;8.20;3.80;;;;;;;5.11;96.41;98972.83;437415;1252;148032;-63
2023/01/13 01:06:08;;;;;;;5.00;4.50;;;;;;;5.12;96.87;98954.02;436992;1252;147384;-63
2023/01/13 01:16:17;;;;;;;6.50;3.90;;;;;;;5.05;97.29;98935.98;439388;1252;198825;-63
2023/01/13 01:26:25;;;;;;;5.40;3.60;;;;;;;5.03;97.65;98929.50;438917;1253;143000;-62
2023/01/13 01:36:31;;;;;;;5.40;3.60;;;;;;;5.06;98.00;98918.05;436082;1252;143059;-63
2023/01/13 01:46:39;;;;;;;6.70;5.00;;;;;;;5.11;98.11;98912.42;438282;1252;142696;-63
2023/01/13 01:56:46;;;;;;;5.10;4.50;;;;;;;5.14;98.50;98903.92;435716;1252;144450;-62
2023/01/13 02:06:53;;;;;;;7.40;4.50;;;;;;;5.11;99.10;98894.23;433400;1252;143303;-63
2023/01/13 02:17:18;;;;;;;6.10;4.60;;;;;;;5.06;99.76;98889.63;437123;1252;146775;-63
2023/01/13 02:28:10;;;;;;;4.30;3.90;;;;;;;5.00;100.00;98887.30;436656;1252;142017;-62
2023/01/13 02:38:21;;;;;;;5.70;4.30;;;;;;;4.96;100.00;98879.21;439944;1252;141927;-62
2023/01/13 02:48:31;;;;;;;4.60;4.20;;;;;;;4.96;100.00;98875.21;432820;1252;142398;-63
2023/01/13 02:58:39;;;;;;;5.90;3.60;;;;;;;4.93;100.00;98864.80;438539;1252;142301;-63
2023/01/13 03:08:50;;;;;;;5.20;3.80;;;;;;;4.93;100.00;98856.45;435146;1255;143889;-63
2023/01/13 03:19:12;;;;;;;5.90;3.40;;;;;;;4.97;100.00;98846.38;442767;1252;142288;-62
2023/01/13 03:29:22;;;;;;;5.50;4.90;;;;;;;4.99;100.00;98843.66;438825;1252;168355;-64
2023/01/13 03:39:32;;;;;;;5.10;3.80;;;;;;;5.00;100.00;98843.04;436786;1252;143241;-63
2023/01/13 03:49:44;;;;;;;5.50;4.10;;;;;;;5.01;100.00;98843.70;444608;1252;141848;-64
2023/01/13 03:59:55;;;;;;;4.60;3.30;;;;;;;5.02;100.00;98838.64;440424;1252;142020;-63
2023/01/13 04:10:05;;;;;;;5.80;3.90;;;;;;;5.01;100.00;98832.94;438039;1252;145446;-62
2023/01/13 04:20:12;;;;;;;4.50;3.40;;;;;;;5.03;100.00;98831.63;435373;1256;140831;-63
2023/01/13 04:30:17;;;;;;;;;;;;;;;5.07;100.00;98827.10;434201;1255;143091;-62
2023/01/13 04:40:23;;;;;;;4.80;3.00;;;;;;;5.09;100.00;98817.64;444006;1252;128333;-62
2023/01/13 04:50:29;;;;;;;4.50;3.30;;;;;;;5.10;100.00;98830.39;435112;1256;186307;-62
2023/01/13 05:00:36;;;;;;;6.30;3.30;;;;;;;5.11;100.00;98829.66;434613;1252;143115;-62
2023/01/13 05:10:41;;;;;;;6.90;4.30;;;;;;;5.13;100.00;98836.48;439186;1252;143167;-63
2023/01/13 05:20:47;;;;;;;6.10;3.40;;;;;;;5.16;100.00;98844.14;435629;1253;142676;-63
2023/01/13 05:30:53;;;;;;;4.00;3.30;;;;;;;5.19;100.00;98838.25;437757;1252;141638;-63
2023/01/13 05:51:25;;;;;;;7.00;3.70;;;;;;;5.26;100.00;98845.02;449558;1252;142800;-62
2023/01/13 06:01:31;;;;;;;4.00;3.60;;;;;;;5.27;100.00;98844.59;441641;1252;145985;-62
2023/01/13 06:11:36;;;;;;;6.90;3.60;;;;;;;5.26;100.00;98846.23;442152;1252;146405;-62
2023/01/13 06:21:43;;;;;;;7.50;4.70;;;;;;;5.21;100.00;98839.02;449581;1251;142659;-63
2023/01/13 06:31:49;;;;;;;5.00;2.90;;;;;;;5.18;100.00;98848.39;450226;1252;142348;-62
2023/01/13 06:52:19;;;;;;;5.30;3.80;;;;;;;5.11;100.00;98850.16;449667;1252;211734;-62
2023/01/13 07:02:26;;;;;;;5.20;3.20;;;;;;;5.12;100.00;98845.23;449496;1253;143108;-64
2023/01/13 07:15:17;;;;;;;4.10;3.30;;;;;;;5.15;100.00;98847.86;449500;1252;142868;-63
2023/01/13 07:22:58;;;;;;;4.80;3.40;;;;;;;5.21;100.00;98849.65;450362;1252;142286;-62
2023/01/13 07:33:04;;;;;;;7.40;3.70;;;;;;;5.24;100.00;98844.92;450447;1252;142014;-62
2023/01/13 07:53:36;;;;;;;6.30;4.20;;;;;;;5.35;100.00;98843.15;450468;1252;142327;-62
2023/01/13 08:03:41;;;;;;;4.70;4.10;;;;;;;5.41;100.00;98848.16;447406;1252;144329;-62
2023/01/13 08:13:47;;;;;;;7.70;4.10;;;;;;;5.47;100.00;98848.73;450357;1252;142039;-63
2023/01/13 08:23:54;;;;;;;4.00;3.40;;;;;;;5.58;100.00;98856.09;450444;1252;141912;-63
2023/01/13 08:33:59;;;;;;;6.70;4.20;;;;;;;5.72;100.00;98858.30;449707;1252;143237;-63
2023/01/13 08:44:08;;;;;;;5.20;3.90;;;;;;;5.92;100.00;98853.54;442765;1252;142463;-62
2023/01/13 08:54:14;;;;;;;7.30;4.40;;;;;;;6.11;100.00;98860.02;450359;1253;141934;-62
2023/01/13 09:04:22;;;;;;;10.10;3.20;;;;;;;6.32;99.79;98853.58;450081;1252;211972;-62
2023/01/13 09:14:30;;;;;;;8.70;3.90;;;;;;;6.65;99.12;98857.55;450344;1252;143228;-62
2023/01/13 09:24:36;;;;;;;7.10;3.40;;;;;;;7.00;98.41;98860.38;449716;1252;143555;-63
2023/01/13 09:35:00;;;;;;;5.10;3.60;;;;;;;7.12;97.31;98855.09;450432;1252;142294;-62
2023/01/13 09:45:10;;;;;;;7.80;3.50;;;;;;;7.19;96.82;98854.67;450496;1253;141791;-62
2023/01/13 09:55:19;;;;;;;13.10;4.20;;;;;;;7.24;96.47;98854.02;449878;1252;214731;-62
2023/01/13 10:05:34;;;;;;;6.70;3.60;;;;;;;7.31;95.98;98845.91;447799;1253;142960;-63
2023/01/13 10:15:50;;;;;;;5.30;2.60;;;;;;;7.38;95.34;98833.86;449478;1253;142819;-62
2023/01/13 10:26:06;;;;;;;4.90;3.20;;;;;;;7.47;94.85;98836.28;450379;1253;141922;-62
2023/01/13 10:36:20;;;;;;;4.70;3.70;;;;;;;7.37;94.89;98833.70;439173;1253;142270;-62
2023/01/13 10:46:27;;;;;;;2.90;2.40;;;;;;;7.30;95.16;98824.23;449988;1252;211645;-63
2023/01/13 10:56:34;;;;;;;3.30;2.70;;;;;;;7.31;95.35;98822.43;450467;1255;141307;-63
2023/01/13 11:06:46;;;;;;;4.70;2.60;;;;;;;7.32;95.62;98818.59;445271;1253;143429;-62
2023/01/13 11:16:57;;;;;;;3.40;2.70;;;;;;;7.37;95.98;98807.99;450233;1255;142614;-63
2023/01/13 11:27:08;;;;;;;5.20;2.50;;;;;;;7.62;96.02;98800.80;450372;1252;142383;-62
2023/01/13 11:37:21;;;;;;;4.50;4.00;;;;;;;7.74;95.70;98795.14;449761;1254;210898;-63
2023/01/13 11:47:28;;;;;;;5.70;3.50;;;;;;;7.68;95.74;98786.13;450285;1254;141498;-63
2023/01/13 11:57:53;;;;;;;6.50;3.70;;;;;;;7.69;95.42;98781.02;449550;1254;142265;-63
2023/01/13 12:08:12;;;;;;;6.80;3.10;;;;;;;7.77;95.24;98787.46;450261;1252;141413;-64
2023/01/13 12:18:34;;;;;;;5.90;3.50;;;;;;;7.91;94.80;98779.42;449560;1253;142754;-63
2023/01/13 12:28:48;;;;;;;4.50;3.00;;;;;;;7.96;94.39;98772.67;450239;1252;145146;-63
2023/01/13 12:38:58;;;;;;;3.60;2.40;;;;;;;7.96;94.19;98773.70;450324;1254;142179;-63
2023/01/13 12:49:17;;;;;;;4.90;3.40;;;;;;;7.96;94.32;98777.20;449502;1254;141751;-63
2023/01/13 12:59:47;;;;;;;6.60;4.50;;;;;;;7.92;94.41;98774.51;450290;1253;141459;-65
2023/01/13 13:10:00;;;;;;;3.80;2.70;;;;;;;7.86;94.26;98772.09;445459;1252;142047;-63
2023/01/13 13:20:28;;;;;;;5.30;3.40;;;;;;;7.80;93.65;98772.48;450063;1254;142138;-63
2023/01/13 13:30:39;;;;;;;7.40;4.10;;;;;;;7.78;93.57;98770.67;449372;1253;142925;-63
2023/01/13 13:51:25;;;;;;;5.70;2.80;;;;;;;7.80;93.25;98766.73;450175;1254;141752;-62
2023/01/13 14:01:36;;;;;;;9.20;4.40;;;;;;;7.82;93.12;98772.14;449842;1252;196551;-63
2023/01/13 14:11:43;;;;;;;7.90;4.50;;;;;;;7.78;92.95;98786.20;440138;1254;141609;-63
2023/01/13 14:21:50;;;;;;;8.00;4.80;;;;;;;7.72;93.07;98786.23;443816;1253;142249;-63
2023/01/13 14:31:57;;;;;;;7.30;4.50;;;;;;;7.67;93.08;98788.27;450173;1252;140949;-63
2023/01/13 14:42:03;;;;;;;7.40;4.80;;;;;;;7.67;92.98;98792.11;450143;1252;141679;-63
2023/01/13 14:52:16;;;;;;;9.50;5.70;;;;;;;7.69;93.19;98801.52;449332;1252;142077;-63
2023/01/13 15:02:48;;;;;;;7.20;4.60;;;;;;;7.66;93.70;98805.25;449978;1252;141127;-63
2023/01/13 15:12:58;;;;;;;4.50;3.60;;;;;;;7.60;94.14;98813.63;449179;1252;141946;-63
2023/01/13 15:23:03;;;;;;;6.10;3.90;;;;;;;7.54;94.53;98818.70;448496;1251;142636;-63
2023/01/13 15:33:13;;;;;;;7.20;4.80;;;;;;;7.49;94.99;98820.45;447789;1251;142343;-64
2023/01/13 15:53:46;;;;;;;8.30;5.80;;;;;;;7.29;96.10;98830.91;450037;1251;140986;-63
2023/01/13 16:03:51;;;;;;;7.90;5.40;;;;;;;7.22;96.44;98836.04;448234;1252;141536;-64
2023/01/13 16:13:57;;;;;;;10.20;5.50;;;;;;;7.14;96.98;98836.86;450049;1251;143283;-63
2023/01/13 16:24:03;;;;;;;11.40;5.60;;;;;;;7.07;97.29;98837.45;449515;1252;142736;-63
2023/01/13 16:34:09;;;;;;;7.80;5.70;;;;;;;7.02;97.48;98839.39;447884;1252;145260;-64
2023/01/13 16:44:15;;;;;;;16.10;10.10;;;;;;;7.01;97.59;98852.83;450065;1252;141873;-63
2023/01/13 16:54:21;;;;;;;14.50;10.40;;;;;;;6.98;98.06;98866.41;449280;1252;142488;-63
2023/01/13 17:04:26;;;;;;;11.40;7.10;;;;;;;6.91;98.68;98879.20;450113;1252;142845;-63
2023/01/13 17:14:32;;;;;;;10.40;6.90;;;;;;;6.80;99.26;98878.98;436266;1252;141533;-61
2023/01/13 17:24:38;;;;;;;29.40;16.80;;;;;;;6.67;99.79;98887.20;437599;1252;141849;-63
2023/01/13 17:34:44;;;;;;;15.80;7.60;;;;;;;6.57;100.00;98878.91;449976;1252;142247;-63
2023/01/13 17:44:50;;;;;;;12.50;8.20;;;;;;;6.51;100.00;98883.27;449802;1252;145931;-63
2023/01/13 17:54:56;;;;;;;26.00;17.40;;;;;;;6.44;100.00;98886.94;449268;1252;141838;-63
2023/01/13 18:05:01;;;;;;;12.20;8.10;;;;;;;6.38;100.00;98895.13;450007;1252;142760;-63
2023/01/13 18:15:09;;;;;;;13.20;8.00;;;;;;;6.35;100.00;98898.60;434593;1252;142909;-64
2023/01/13 18:35:40;;;;;;;15.00;8.90;;;;;;;6.22;100.00;98916.77;447189;1252;142952;-63
2023/01/13 18:45:51;;;;;;;9.90;6.10;;;;;;;6.20;100.00;98920.29;449171;1252;142503;-63
2023/01/13 18:55:57;;;;;;;8.90;6.40;;;;;;;6.20;100.00;98942.90;450075;1252;142959;-63
2023/01/13 19:06:06;;;;;;;8.40;5.50;;;;;;;6.17;100.00;98943.06;450221;1252;141811;-64
2023/01/13 19:16:12;;;;;;;10.30;6.00;;;;;;;6.12;100.00;98940.38;449549;1252;141373;-63
2023/01/13 19:26:18;;;;;;;9.40;7.10;;;;;;;6.07;100.00;98957.34;447040;1252;143244;-63
2023/01/13 19:36:25;;;;;;;11.40;6.90;;;;;;;5.96;100.00;98965.73;449575;1252;142945;-62
2023/01/13 19:46:31;;;;;;;14.40;10.00;;;;;;;5.76;100.00;98973.95;450180;1252;143138;-64
2023/01/13 19:56:37;;;;;;;12.90;8.20;;;;;;;5.55;100.00;98985.27;450320;1252;144567;-63
2023/01/13 20:06:43;;;;;;;10.40;8.20;;;;;;;5.47;100.00;98998.34;449002;1252;143330;-63
2023/01/13 20:16:49;;;;;;;11.30;10.10;;;;;;;5.47;100.00;99011.05;449198;1252;142486;-62
2023/01/13 20:26:55;;;;;;;11.30;9.30;;;;;;;5.44;100.00;99022.86;450069;1251;143554;-63
2023/01/13 20:37:01;;;;;;;13.80;10.00;;;;;;;5.33;100.00;99032.07;449379;1252;143126;-63
2023/01/13 20:47:08;;;;;;;13.20;11.00;;;;;;;5.15;100.00;99051.35;448668;1252;142875;-62
2023/01/13 20:57:14;;;;;;;16.20;12.40;;;;;;;4.94;100.00;99051.68;450130;1251;142783;-63
2023/01/13 21:07:20;;;;;;;12.60;9.80;;;;;;;4.73;100.00;99052.40;449745;1252;208657;-64
2023/01/13 21:27:52;;;;;;;16.00;10.00;;;;;;;4.61;100.00;99062.81;449459;1252;142769;-62
2023/01/13 21:37:58;;;;;;;10.60;9.20;;;;;;;4.50;100.00;99077.55;450217;1252;142675;-62
2023/01/13 21:48:05;;;;;;;12.90;9.90;;;;;;;4.36;100.00;99094.70;448992;1252;141935;-64
2023/01/13 21:58:13;;;;;;;12.10;9.20;;;;;;;4.26;100.00;99098.08;435247;1254;145960;-64
2023/01/13 22:08:19;;;;;;;11.70;8.20;;;;;;;4.21;100.00;99097.59;432746;1256;141284;-64
2023/01/13 22:18:25;;;;;;;11.50;9.00;;;;;;;4.13;100.00;99099.36;432585;1256;143782;-64
2023/01/13 22:28:33;;;;;;;12.30;8.60;;;;;;;4.09;100.00;99100.41;445669;1252;144404;-64
2023/01/13 22:38:39;;;;;;;13.80;9.70;;;;;;;4.04;100.00;99093.71;450205;1252;143408;-63
2023/01/13 22:48:47;;;;;;;14.20;9.10;;;;;;;3.94;100.00;99110.25;449215;1252;142204;-63
2023/01/13 22:58:56;;;;;;;12.60;8.60;;;;;;;3.88;100.00;99121.58;434829;1253;188152;-63
2023/01/13 23:09:02;;;;;;;17.00;12.20;;;;;;;3.77;100.00;99130.34;446061;1252;144469;-62
2023/01/13 23:19:10;;;;;;;14.90;11.70;;;;;;;3.68;100.00;99136.30;438252;1255;142619;-62
2023/01/13 23:29:16;;;;;;;12.10;10.20;;;;;;;3.67;100.00;99133.90;446847;1252;142484;-63
2023/01/13 23:39:23;;;;;;;11.50;7.90;;;;;;;3.69;100.00;99140.58;438141;1252;143507;-64
2023/01/13 23:49:27;;;;;;;;;;;;;;;3.56;100.00;99156.54;446124;1255;143337;-63
2023/01/13 23:59:33;;;;;;;12.50;10.00;;;;;;;3.47;100.00;99163.64;450454;1252;129132;-63
